Date,TemperatureHighF,TemperatureAvgF,TemperatureLowF,DewpointHighF,DewpointAvgF,DewpointLowF,HumidityHigh,HumidityAvg,HumidityLow,PressureMaxIn,PressureMinIn,WindSpeedMaxMPH,WindSpeedAvgMPH,GustSpeedMaxMPH,PrecipitationSumIn
2014-1-1,-5,-7,-10,-100,-100,-100,0,0,100,30.39,26.98,15,13,0,0.00
2014-6-1,54,54,54,-100,-100,-100,0,0,100,29.80,29.80,5,5,0,0.00
2014-6-3,43,43,43,-100,-100,-100,0,0,100,29.70,29.70,30,30,0,0.00
2014-6-8,38,38,38,-100,-100,-100,0,0,100,30.00,30.00,22,22,0,0.00
2014-6-10,47,47,47,-100,-100,-100,0,0,100,30.28,30.28,11,11,0,0.00
2014-6-11,56,56,56,-100,-100,-100,0,0,100,29.93,29.93,6,6,0,0.00
2014-6-13,53,53,53,-100,-100,-100,0,0,100,30.00,30.00,18,18,0,0.00
2014-6-18,43,43,43,-100,-100,-100,0,0,100,31.00,31.00,13,13,0,0.00
2014-6-19,55,55,55,-100,-100,-100,0,0,100,30.22,30.22,9,9,0,0.00
2014-6-20,39,39,39,-100,-100,-100,0,0,100,30.00,30.00,18,18,0,0.00
2014-6-21,39,39,39,-100,-100,-100,0,0,100,30.00,30.00,18,18,0,0.00
2014-6-22,53,53,53,-100,-100,-100,0,0,100,29.91,29.91,6,6,0,0.00
2014-6-23,49,49,49,-100,-100,-100,0,0,100,29.89,29.89,11,11,0,0.00
2014-6-30,60,59,56,-100,-100,-100,0,0,100,29.53,29.52,30,29,0,0.00
2014-7-1,45,45,45,-100,-100,-100,0,0,100,29.70,29.70,21,21,0,0.00
2014-7-2,45,45,45,-100,-100,-100,0,0,100,29.70,29.70,21,21,0,0.00
2014-7-3,55,55,55,-100,-100,-100,0,0,100,30.20,30.20,5,5,0,0.00
2014-7-5,66,66,66,-100,-100,-100,0,0,100,30.12,30.12,25,25,0,0.00
2014-7-6,62,61,59,-100,-100,-100,0,0,100,29.66,29.60,20,13,0,0.00
2014-7-7,50,49,48,-100,-100,-100,0,0,100,30.09,29.55,28,26,0,0.00
2014-7-8,44,44,44,-100,-100,-100,0,0,100,29.70,29.70,7,7,0,0.00
2014-7-11,68,68,68,-100,0,200,0,0,100,30.20,30.20,9,9,0,0.00
2014-7-12,51,51,51,-100,0,200,0,0,100,29.87,29.87,1,1,0,0.00
2014-7-17,67,67,67,-100,0,200,0,0,100,30.11,30.11,8,8,0,0.00
2014-7-19,61,58,53,-100,0,200,0,0,100,29.97,29.90,23,22,0,0.00
2014-7-20,53,52,50,-100,0,200,0,0,100,29.89,29.85,29,28,0,0.00
2014-7-25,74,74,74,-100,0,200,0,0,100,29.83,29.83,5,5,0,0.00
2014-7-26,62,61,57,-100,0,200,0,0,100,29.74,29.73,21,15,0,0.00
2014-7-29,67,64,55,-100,0,200,0,0,100,30.02,30.02,10,8,0,0.00
2014-7-30,61,61,61,-100,0,200,0,0,100,30.02,30.02,14,14,0,0.00
2014-7-31,53,53,53,-100,0,200,0,0,100,29.95,29.95,3,3,0,0.00
2014-8-3,52,50,47,-100,0,200,0,0,100,30.80,30.08,10,9,0,0.00
2014-8-4,69,66,58,-100,0,200,0,0,100,30.10,30.09,10,8,0,0.00
2014-8-7,74,74,74,-100,0,200,0,0,100,30.07,30.07,9,9,0,0.00
2014-8-8,65,65,65,-100,0,200,0,0,100,30.09,30.09,10,10,0,0.00
2014-8-10,66,66,66,-100,0,200,0,0,100,30.15,30.15,9,9,0,0.00
2014-8-11,72,72,72,-100,0,200,0,0,100,29.97,29.97,20,20,0,0.00
2014-8-12,75,73,70,-100,0,200,0,0,100,29.78,29.30,40,27,0,0.00
2014-8-13,62,62,62,-100,0,200,0,0,100,29.91,29.91,26,26,0,0.00
2014-8-14,57,57,57,-100,0,200,0,0,100,29.98,29.98,24,24,0,0.00
2014-8-16,66,66,66,-100,0,200,0,0,100,29.78,29.78,16,16,0,0.00
2014-8-17,46,46,46,-100,0,200,0,0,100,30.04,30.04,8,8,0,0.00
2014-8-21,67,67,67,-100,0,200,0,0,100,29.97,29.97,10,10,0,0.00